Redtown, Texas
Current Conditions -  °F | °C
As of 2:15 AM on Monday 26 Jan 2015 (Local Time) from KOCH Reporting Station
Clear Clear  
Wind Chill: 41°   Ceiling: Unl
Heat Index: 45°   Visibility: 10mi
Dew Point: 27°   Wind: 6mph
Humidity: 49%   Direction: 360°N
Pressure: 30.18"   Gusts: NA
Location:  31.426°N, 94.8655°W
Report Text: KOCH 260815Z 36005KT 10SM CLR 07/M03 A3018 RMK AO1
Loading
Personal Weather Stations






























Interactive Weather Map New forecast layout! Learn more

10-Day Weather Forecast

Advertisements
Track Severe Weather on mobile